Thunder radar more information blitzortung!


Radar de pluja more information rain snow radar


Visita la nostra xarxa de llocs de meteo:

Template documentation
and downloads

And another site



No particular awareness of the weather is required.    There are no Weather-warnings

Pagina Historial Weather Underground text

Diari Resum Setembre 9, 2017 Unitats:  Mètric    Imperial   Tant
« Previous Dia
SegĂźent Dia »
Diari Setmana Mensual Anual Personalitzada
  Maxima: Minima: Media:
Temperatura: -17.8 °C -10.8 °C -7.7 °C
Punt de rosada: -17.8 °C -13.2 °C -10.2 °C
Humitat: Humidity % 57 % 75 %
Wind Speed: 0 km/h 0 km/h 6.9 km/h
RĂ fegues de vent: 0 km/h - -
Vent:- - SSE
Pression baro: 0 hPa 33924.3 hPa -
Precipitacions: 134.62 mm    
Historical Graphs
 
 
Dades de taula per Setembre 9, 2017
Temps Temperatura Punt de rosada Pression baro Vent Wind Speed RĂ fegues de vent Humitat Rainfall Rate (Hourly)
-17.8 °C -17.8 °C 0 hPa Calm     Humidity % 0 mm
00:03 -7.1 °C -11.2 °C 34198.6 hPa SW 3.7 km/h 3.7 km/h 62 % 0 mm
00:04 -7.1 °C -11.2 °C 34198.6 hPa SW 3.7 km/h 3.7 km/h 62 % 0 mm
00:05 -7.6 °C -10.3 °C 34063.2 hPa Calm   7.7 km/h 73 % 0 mm
00:09 -7.1 °C -11.2 °C 34164.7 hPa Calm     62 % 0 mm
00:15 -7.5 °C -10.2 °C 34063.2 hPa Calm   2.6 km/h 73 % 0 mm
00:25 -7.5 °C -10.2 °C 34063.2 hPa Calm   7.7 km/h 73 % 0 mm
00:35 -7.5 °C -10.2 °C 34063.2 hPa NNE 7.7 km/h 7.7 km/h 73 % 0 mm
00:45 -7.4 °C -10.2 °C 34063.2 hPa North 2.6 km/h 5.1 km/h 73 % 0 mm
00:55 -7.4 °C -10.2 °C 34063.2 hPa Calm   2.6 km/h 73 % 0 mm
01:05 -7.4 °C -10.2 °C 34063.2 hPa Calm   7.7 km/h 73 % 0 mm
01:15 -7.4 °C -10.2 °C 34063.2 hPa Calm   5.1 km/h 73 % 0 mm
01:25 -7.4 °C -10.2 °C 34063.2 hPa NNE 5.1 km/h 7.7 km/h 73 % 0 mm
01:35 -7.4 °C -10.1 °C 34063.2 hPa North 2.6 km/h 5.1 km/h 74 % 0 mm
01:45 -7.4 °C -10.2 °C 34029.3 hPa NNE 5.1 km/h 10.3 km/h 73 % 0 mm
01:55 -7.4 °C -10.2 °C 33992.1 hPa NNE 2.6 km/h 7.7 km/h 73 % 0 mm
02:05 -7.5 °C -10.1 °C 33992.1 hPa North 2.6 km/h 5.1 km/h 74 % 0 mm
02:15 -7.6 °C -10.2 °C 33992.1 hPa NNE 5.1 km/h 5.1 km/h 74 % 0 mm
02:25 -7.6 °C -10.2 °C 33992.1 hPa NNE 5.1 km/h 10.3 km/h 74 % 0 mm
02:35 -7.7 °C -10.3 °C 33992.1 hPa NE 5.1 km/h 7.7 km/h 74 % 0 mm
02:45 -7.7 °C -10.2 °C 33992.1 hPa NE 2.6 km/h 7.7 km/h 75 % 0 mm
02:55 -7.7 °C -10.3 °C 33992.1 hPa ENE 2.6 km/h 10.3 km/h 74 % 0 mm
03:05 -7.6 °C -10.2 °C 33992.1 hPa NNE 2.6 km/h 5.1 km/h 74 % 0 mm
03:15 -7.6 °C -10.1 °C 33992.1 hPa NE 2.6 km/h 7.7 km/h 75 % 0 mm
03:25 -7.6 °C -10.1 °C 33992.1 hPa NNE 7.7 km/h 7.7 km/h 75 % 0 mm
03:35 -7.6 °C -10.1 °C 33992.1 hPa North 7.7 km/h 10.3 km/h 75 % 0 mm
03:45 -7.6 °C -10.2 °C 33958.2 hPa North 12.9 km/h 15.6 km/h 74 % 0 mm
03:55 -7.6 °C -10.2 °C 33992.1 hPa NNE 12.9 km/h 12.9 km/h 74 % 0 mm
04:05 -7.5 °C -10.1 °C 33992.1 hPa NNE 7.7 km/h 12.9 km/h 74 % 0 mm
04:15 -7.5 °C -10.1 °C 33992.1 hPa NNE 7.7 km/h 10.3 km/h 74 % 0 mm
04:25 -7.4 °C -10.1 °C 33992.1 hPa North 5.1 km/h 7.7 km/h 74 % 0 mm
04:35 -7.3 °C -10.1 °C 33992.1 hPa North 2.6 km/h 10.3 km/h 73 % 0 mm
04:45 -7.3 °C -10.1 °C 33992.1 hPa NNE 7.7 km/h 12.9 km/h 73 % 0 mm
04:55 -7.2 °C -10.1 °C 33992.1 hPa NNE 5.1 km/h 5.1 km/h 72 % 0 mm
05:05 -7 °C -9.9 °C 33992.1 hPa North 2.6 km/h 7.7 km/h 72 % 0 mm
05:15 -6.8 °C -9.7 °C 33992.1 hPa NNE 2.6 km/h 7.7 km/h 72 % 0 mm
05:25 -6.4 °C -9.5 °C 33992.1 hPa NE 2.6 km/h 7.7 km/h 71 % 0 mm
10:25 -6.4 °C -9.5 °C 33992.1 hPa NE 7.6 km/h 7.6 km/h 71 % 0 mm
10:30 -6.1 °C -9.3 °C 33992.1 hPa ENE 3.1 km/h 3.1 km/h 69 % 0 mm
10:35 -6.1 °C -9.2 °C 33992.1 hPa NNW 6 km/h 6 km/h 70 % 0 mm
10:40 -5.9 °C -9.1 °C 33992.1 hPa NNW 7.6 km/h 7.6 km/h 70 % 0 mm
10:45 -5.7 °C -9 °C 33992.1 hPa ENE 9 km/h 9 km/h 69 % 0 mm
10:50 -5.4 °C -9 °C 33992.1 hPa North 6 km/h 6 km/h 67 % 0 mm
10:55 -5.2 °C -8.6 °C 33992.1 hPa North 4.2 km/h 4.2 km/h 68 % 0 mm
11:00 -5.2 °C -8.7 °C 33992.1 hPa ENE 15 km/h 15 km/h 67 % 0 mm
11:05 -5.2 °C -8.8 °C 33992.1 hPa NNE 6 km/h 6 km/h 67 % 0 mm
11:10 -5 °C -8.6 °C 33958.2 hPa East 11.9 km/h 11.9 km/h 67 % 0 mm
11:15 -5 °C -8.6 °C 33958.2 hPa NE 11.9 km/h 11.9 km/h 67 % 0 mm
11:20 -4.8 °C -8.4 °C 33958.2 hPa NE 14 km/h 14 km/h 67 % 0 mm
11:25 -4.9 °C -8.5 °C 33958.2 hPa NNE 11.9 km/h 11.9 km/h 67 % 0 mm
11:30 -4.6 °C -8.2 °C 33958.2 hPa NNE 9 km/h 9 km/h 67 % 0 mm
11:35 -4.6 °C -8 °C 33958.2 hPa East 9 km/h 9 km/h 68 % 0 mm
11:40 -4.6 °C -8 °C 33958.2 hPa East 9.3 km/h 9.3 km/h 68 % 0 mm
11:45 -4.6 °C -8.2 °C 33958.2 hPa NNE 9 km/h 9 km/h 67 % 0 mm
11:50 -4.5 °C -8.1 °C 33958.2 hPa NE 6.3 km/h 6.3 km/h 67 % 0 mm
11:55 -4.4 °C -8.2 °C 33958.2 hPa NNE 8.5 km/h 8.5 km/h 66 % 0 mm
12:00 -4.5 °C -8.1 °C 33958.2 hPa ENE 6 km/h 6.3 km/h 67 % 0 mm
12:05 -4.5 °C -8.1 °C 33958.2 hPa East 9.3 km/h 9.3 km/h 67 % 0 mm
12:10 -4.5 °C -8.1 °C 33958.2 hPa ENE 9 km/h 9 km/h 67 % 0 mm
12:15 -4.4 °C -8.2 °C 33958.2 hPa NNE 6 km/h   66 % 0 mm
12:20 -4.1 °C -7.9 °C 33958.2 hPa Calm     66 % 0 mm
12:25 -4.1 °C -7.8 °C 33924.3 hPa West 6.8 km/h 6.8 km/h 66 % 0 mm
12:30 -4 °C -7.9 °C 33924.3 hPa NW 3.1 km/h   65 % 0 mm
12:35 -4 °C -7.9 °C 33924.3 hPa SW 9 km/h 9.3 km/h 65 % 0 mm
12:40 -4.2 °C -8.3 °C 33924.3 hPa WSW 15 km/h 15 km/h 63 % 0 mm
12:45 -4.2 °C -8.5 °C 33924.3 hPa South 9 km/h 9 km/h 62 % 0 mm
12:50 -4.3 °C -8.7 °C 33924.3 hPa WSW 9 km/h 9 km/h 61 % 0 mm
12:55 -4.3 °C -8.7 °C 33924.3 hPa WSW 20.9 km/h 20.9 km/h 61 % 0 mm
13:00 -4.4 °C -9 °C 33924.3 hPa West 16.6 km/h 16.6 km/h 60 % 0 mm
13:05 -4.5 °C -8.9 °C 33924.3 hPa SW 11.9 km/h 11.9 km/h 61 % 0 mm
13:10 -4.6 °C -9 °C 33924.3 hPa SW 20.9 km/h 20.9 km/h 61 % 0 mm
13:15 -4.7 °C -9.1 °C 33924.3 hPa West 11.9 km/h 11.9 km/h 61 % 0 mm
13:20 -4.7 °C -9.2 °C 33924.3 hPa WNW 25.1 km/h 25.1 km/h 60 % 0 mm
13:25 -4.7 °C -9.3 °C 33924.3 hPa WNW 17.9 km/h 17.9 km/h 60 % 0 mm
13:30 -4.7 °C -9.3 °C 33924.3 hPa West 15.3 km/h 15.3 km/h 60 % 0 mm
13:35 -4.7 °C -9.3 °C 33924.3 hPa West 15 km/h 15 km/h 60 % 0 mm
13:40 -4.8 °C -9.3 °C 33924.3 hPa West 23.8 km/h 23.8 km/h 60 % 0 mm
13:45 -4.7 °C -9.3 °C 33924.3 hPa NW 15 km/h 15 km/h 60 % 0 mm
13:50 -4.7 °C -9.4 °C 33924.3 hPa SSW 9 km/h 9 km/h 59 % 0 mm
13:55 -4.7 °C -9.4 °C 33924.3 hPa WSW 15 km/h 15 km/h 59 % 0 mm
14:00 -4.9 °C -9.8 °C 33924.3 hPa West 20.9 km/h 20.9 km/h 58 % 0 mm
14:05 -5.2 °C -10 °C 33924.3 hPa WSW 15 km/h 15 km/h 58 % 0 mm
14:10 -5.2 °C -10.1 °C 33958.2 hPa WSW 14 km/h 14 km/h 58 % 0 mm
14:15 -5.4 °C -10.3 °C 33958.2 hPa NW 15 km/h 15 km/h 57 % 0 mm
14:20 -5.4 °C -10.4 °C 33958.2 hPa South 9 km/h 9 km/h 57 % 0 mm
14:25 -5.4 °C -10.3 °C 33958.2 hPa WSW 15.6 km/h 15.6 km/h 57 % 0 mm
14:30 -5.4 °C -10.4 °C 33958.2 hPa NNW 14.5 km/h 14.5 km/h 57 % 0 mm
14:36 -5.6 °C -10.4 °C 33958.2 hPa WNW 11.9 km/h 11.9 km/h 58 % 0 mm
14:41 -5.8 °C -10.6 °C 33992.1 hPa WNW 17.9 km/h 17.9 km/h 58 % 0 mm
14:46 -5.9 °C -10.6 °C 33992.1 hPa WSW 15 km/h 15 km/h 59 % 0 mm
14:51 -6.3 °C -10.6 °C 33992.1 hPa West 15 km/h 15 km/h 61 % 0 mm
14:56 -6.4 °C -10.6 °C 33992.1 hPa NW 11.9 km/h 11.9 km/h 62 % 0 mm
15:01 -6.7 °C -10.6 °C 33992.1 hPa NE 9 km/h 9 km/h 64 % 0 mm
15:06 -6.8 °C -10.5 °C 33992.1 hPa SW 11.9 km/h 11.9 km/h 65 % 0 mm
15:11 -7 °C -10.5 °C 33992.1 hPa SSW 6.3 km/h 6.3 km/h 67 % 0 mm
15:16 -7.1 °C -10.4 °C 33992.1 hPa WNW 9 km/h 9 km/h 68 % 0 mm
15:21 -7.3 °C -10.4 °C 33992.1 hPa South 6.8 km/h   70 % 0 mm
15:26 -7.4 °C -10.2 °C 33992.1 hPa WNW 3.1 km/h 3.1 km/h 72 % 0 mm
15:31 -7.5 °C -10.2 °C 33992.1 hPa ENE 6.8 km/h 6.8 km/h 73 % 0 mm
15:36 -7.6 °C -10.1 °C 33992.1 hPa SE 6 km/h 6 km/h 75 % 0 mm
15:41 -7.7 °C -10.2 °C 33992.1 hPa ESE 3.7 km/h   75 % 25.4 mm
15:46 -7.8 °C -10.3 °C 33992.1 hPa East 6 km/h 6 km/h 75 % 25.4 mm
15:51 -7.7 °C -10.1 °C 33992.1 hPa SW 6 km/h 6 km/h 76 % 25.4 mm
15:56 -7.7 °C -10 °C 33958.2 hPa ESE 6.3 km/h 6.3 km/h 77 % 25.4 mm
16:01 -7.8 °C -10.1 °C 33958.2 hPa NE 4.2 km/h   77 % 25.4 mm
16:06 -7.8 °C -10 °C 33992.1 hPa SW 3.1 km/h 3.1 km/h 78 % 58.42 mm
16:11 -7.8 °C -10 °C 33992.1 hPa SW 3.1 km/h 3.1 km/h 78 % 58.42 mm
16:16 -7.9 °C -10.1 °C 33992.1 hPa SW 3.1 km/h   78 % 58.42 mm
16:21 -7.9 °C -10.1 °C 33992.1 hPa WSW 6 km/h 6 km/h 78 % 58.42 mm
16:26 -8.1 °C -10.2 °C 33992.1 hPa WSW 6 km/h 6 km/h 78 % 58.42 mm
16:31 -7.9 °C -10 °C 33992.1 hPa SW 6 km/h 6 km/h 79 % 58.42 mm
16:36 -8 °C -10.1 °C 33992.1 hPa WSW 6 km/h 6 km/h 79 % 50.8 mm
16:41 -8.1 °C -10.1 °C 33992.1 hPa WSW 6 km/h 6 km/h 79 % 50.8 mm
16:46 -8.1 °C -10.2 °C 33992.1 hPa WNW 6 km/h 6 km/h 79 % 50.8 mm
16:51 -8.3 °C -10.3 °C 33992.1 hPa NNW 7.6 km/h 7.6 km/h 79 % 83.82 mm
16:56 -8.3 °C -10.4 °C 33992.1 hPa WSW 9 km/h 9 km/h 79 % 83.82 mm
17:01 -8.4 °C -10.5 °C 33992.1 hPa WNW 11.9 km/h 11.9 km/h 79 % 83.82 mm
17:06 -8.5 °C -10.4 °C 33992.1 hPa SW 9 km/h 9 km/h 80 % 50.8 mm
17:11 -8.6 °C -10.5 °C 33992.1 hPa West 6.3 km/h 6.3 km/h 80 % 76.2 mm
17:16 -8.6 °C -10.4 °C 33992.1 hPa WNW 3.1 km/h   81 % 76.2 mm
17:21 -8.5 °C -10.3 °C 33992.1 hPa SW 5.1 km/h 5.1 km/h 81 % 76.2 mm
17:26 -8.5 °C -10.1 °C 33992.1 hPa Calm     83 % 76.2 mm
17:31 -8.4 °C -9.9 °C 33992.1 hPa SW 3.1 km/h   84 % 76.2 mm
17:36 -8.5 °C -10.1 °C 33992.1 hPa West 9 km/h 9 km/h 83 % 58.42 mm
17:41 -8.6 °C -10.3 °C 33992.1 hPa WSW 6 km/h 6 km/h 82 % 58.42 mm
17:42 -8.5 °C -10.2 °C 33992.1 hPa West 6 km/h 6 km/h 82 % 58.42 mm
17:47 -8.4 °C -10.2 °C 33992.1 hPa Calm     82 % 58.42 mm
17:52 -8.4 °C -10 °C 33992.1 hPa West 3.1 km/h   83 % 25.4 mm
17:57 -8.3 °C -9.9 °C 33992.1 hPa NNE 3.1 km/h 3.1 km/h 83 % 25.4 mm
18:02 -8.2 °C -9.7 °C 33992.1 hPa Calm     84 % 25.4 mm
18:07 -8.2 °C -9.8 °C 33992.1 hPa Calm     83 % 25.4 mm
18:12 -8.1 °C -9.7 °C 33992.1 hPa Calm     83 % 0 mm
18:17 -8.1 °C -9.7 °C 33992.1 hPa SW 5.1 km/h 5.1 km/h 83 % 0 mm
18:22 -8.1 °C -9.7 °C 33992.1 hPa SW 3.7 km/h 3.7 km/h 83 % 0 mm
18:27 -8 °C -9.6 °C 33992.1 hPa Calm     83 % 0 mm
18:32 -8.1 °C -9.7 °C 33992.1 hPa Calm     83 % 0 mm
18:37 -8.1 °C -9.8 °C 33958.2 hPa Calm     82 % 0 mm
18:42 -8.1 °C -9.7 °C 33958.2 hPa Calm     83 % 0 mm
18:47 -8.1 °C -9.8 °C 33958.2 hPa SW 3.7 km/h   82 % 0 mm
18:48 -8.1 °C -9.8 °C 33958.2 hPa SW 3.7 km/h   82 % 0 mm
18:53 -8.1 °C -9.8 °C 33958.2 hPa SW 3.1 km/h 3.7 km/h 82 % 0 mm
18:58 -8.1 °C -9.7 °C 33958.2 hPa SW 3.1 km/h   83 % 0 mm
19:03 -8.1 °C -9.7 °C 33958.2 hPa SW 6 km/h 6 km/h 83 % 0 mm
19:08 -8.2 °C -9.7 °C 33958.2 hPa SW 3.7 km/h   84 % 0 mm
19:13 -8.2 °C -9.7 °C 33958.2 hPa Calm     84 % 0 mm
19:18 -8.2 °C -9.8 °C 33958.2 hPa SW 6 km/h 6 km/h 83 % 0 mm
19:23 -8.3 °C -9.9 °C 33958.2 hPa SW 3.1 km/h   83 % 0 mm
19:25 -9.7 °C -11.3 °C 33992.1 hPa ENE 2.6 km/h   82 % 0 mm
19:28 -8.3 °C -9.9 °C 33958.2 hPa SW 3.1 km/h 3.1 km/h 83 % 0 mm
19:33 -8.3 °C -9.9 °C 33958.2 hPa SW 3.1 km/h   83 % 0 mm
19:35 -9.7 °C -11.3 °C 33992.1 hPa NE 2.6 km/h 5.1 km/h 82 % 0 mm
19:38 -8.4 °C -9.9 °C 33958.2 hPa Calm     84 % 0 mm
19:43 -8.4 °C -9.9 °C 33958.2 hPa Calm     84 % 0 mm
19:45 -9.7 °C -11.4 °C 33992.1 hPa Calm     82 % 0 mm
19:48 -8.4 °C -9.9 °C 33958.2 hPa Calm     84 % 0 mm
19:53 -8.4 °C -9.9 °C 33958.2 hPa ENE 6 km/h 6 km/h 84 % 0 mm
19:55 -9.8 °C -11.4 °C 33992.1 hPa NNE 2.6 km/h 5.1 km/h 83 % 0 mm
19:58 -8.5 °C -9.9 °C 33958.2 hPa ENE 9 km/h 9 km/h 85 % 0 mm
20:03 -8.6 °C -10.1 °C 33958.2 hPa ENE 9 km/h 9 km/h 84 % 0 mm
20:05 -9.9 °C -11.5 °C 33992.1 hPa Calm     83 % 0 mm
20:08 -8.6 °C -10.1 °C 33958.2 hPa ENE 3.1 km/h 3.1 km/h 84 % 0 mm
20:13 -8.6 °C -10.1 °C 33958.2 hPa NE 11.1 km/h 11.1 km/h 84 % 0 mm
20:15 -9.9 °C -11.5 °C 33992.1 hPa Calm   2.6 km/h 83 % 0 mm
20:18 -8.6 °C -9.9 °C 33958.2 hPa East 11.9 km/h 11.9 km/h 85 % 0 mm
20:23 -8.6 °C -9.9 °C 33958.2 hPa NE 9.3 km/h 9.3 km/h 85 % 0 mm
20:25 -9.9 °C -11.5 °C 34029.3 hPa WNW 2.6 km/h 5.1 km/h 83 % 0 mm
20:28 -8.6 °C -9.9 °C 33958.2 hPa NNE 9 km/h 9 km/h 85 % 0 mm
20:33 -8.6 °C -10.1 °C 33958.2 hPa NNE 11.9 km/h 11.9 km/h 85 % 0 mm
20:35 -10 °C -11.6 °C 34029.3 hPa Calm     83 % 0 mm
20:38 -8.6 °C -10.1 °C 33958.2 hPa ENE 11.9 km/h 11.9 km/h 85 % 0 mm
20:43 -8.7 °C -10.1 °C 33958.2 hPa NE 9.8 km/h 9.8 km/h 85 % 0 mm
20:45 -10 °C -11.6 °C 34029.3 hPa West 5.1 km/h 5.1 km/h 83 % 0 mm
20:48 -8.7 °C -9.9 °C 33958.2 hPa ESE 6 km/h 6.3 km/h 86 % 0 mm
20:53 -8.7 °C -9.9 °C 33992.1 hPa ENE 11.9 km/h 11.9 km/h 86 % 0 mm
20:55 -10.1 °C -11.6 °C 34029.3 hPa Calm   5.1 km/h 84 % 0 mm
20:58 -8.7 °C -9.9 °C 33992.1 hPa North 6.3 km/h 6.3 km/h 86 % 0 mm
21:03 -8.6 °C -9.9 °C 33992.1 hPa North 15 km/h 15 km/h 86 % 0 mm
21:05 -10.2 °C -11.6 °C 34029.3 hPa Calm   5.1 km/h 84 % 0 mm
21:08 -8.6 °C -9.8 °C 33992.1 hPa ENE 15 km/h 15 km/h 87 % 0 mm
21:13 -8.7 °C -9.9 °C 33992.1 hPa East 12.7 km/h 12.7 km/h 87 % 0 mm
21:15 -10.2 °C -11.7 °C 34029.3 hPa SW 2.6 km/h 2.6 km/h 84 % 0 mm
21:18 -8.7 °C -9.9 °C 33992.1 hPa ESE 20.3 km/h 20.3 km/h 87 % 0 mm
21:23 -8.7 °C -9.9 °C 33992.1 hPa East 11.9 km/h 11.9 km/h 87 % 0 mm
21:25 -10.3 °C -11.7 °C 34029.3 hPa Calm   2.6 km/h 85 % 0 mm
21:28 -8.7 °C -9.8 °C 33992.1 hPa ENE 11.9 km/h 11.9 km/h 88 % 0 mm
21:33 -8.7 °C -9.8 °C 33992.1 hPa East 6 km/h 6 km/h 88 % 0 mm
21:35 -10.4 °C -11.9 °C 34029.3 hPa SW 2.6 km/h 7.7 km/h 84 % 0 mm
21:38 -8.8 °C -9.9 °C 33992.1 hPa ESE 12.2 km/h 12.2 km/h 88 % 0 mm
21:43 -8.8 °C -10.1 °C 33992.1 hPa ENE 17.9 km/h 17.9 km/h 87 % 0 mm
21:45 -10.5 °C -12 °C 34029.3 hPa Calm   5.1 km/h 84 % 0 mm
21:48 -8.9 °C -10.2 °C 33992.1 hPa NE 11.9 km/h 11.9 km/h 86 % 0 mm
21:53 -8.9 °C -10.2 °C 33992.1 hPa ENE 11.9 km/h 11.9 km/h 86 % 0 mm
21:54 -8.9 °C -10.2 °C 33992.1 hPa ENE 11.9 km/h 11.9 km/h 86 % 0 mm
21:55 -10.3 °C -12 °C 34029.3 hPa WSW 5.1 km/h 10.3 km/h 82 % 0 mm
21:59 -8.9 °C -10.2 °C 33992.1 hPa NNE 11.9 km/h 11.9 km/h 86 % 0 mm
22:04 -8.9 °C -10.2 °C 33992.1 hPa ENE 9 km/h 9 km/h 86 % 0 mm
22:05 -10.2 °C -12.1 °C 34029.3 hPa West 2.6 km/h 7.7 km/h 80 % 0 mm
22:09 -9 °C -10.4 °C 34029.3 hPa East 7.6 km/h 7.6 km/h 85 % 0 mm
22:14 -8.9 °C -10.3 °C 34029.3 hPa East 9 km/h 9 km/h 85 % 0 mm
22:15 -10.2 °C -12.2 °C 34029.3 hPa West 2.6 km/h 7.7 km/h 79 % 0 mm
22:19 -9 °C -10.5 °C 34029.3 hPa NE 9 km/h 9 km/h 84 % 0 mm
22:24 -9 °C -10.5 °C 34029.3 hPa ENE 6 km/h 6 km/h 84 % 0 mm
22:25 -10.2 °C -12.4 °C 34029.3 hPa Calm   2.6 km/h 77 % 0 mm
22:29 -9 °C -10.5 °C 34029.3 hPa ENE 9 km/h 9 km/h 84 % 0 mm
22:34 -9 °C -10.5 °C 34029.3 hPa ENE 8.5 km/h 8.5 km/h 84 % 0 mm
22:35 -10.1 °C -12.4 °C 34029.3 hPa West 5.1 km/h 5.1 km/h 76 % 0 mm
22:39 -9.1 °C -10.6 °C 34029.3 hPa NNE 8 km/h 8 km/h 84 % 0 mm
22:44 -9.1 °C -10.6 °C 34029.3 hPa NE 11.9 km/h 11.9 km/h 84 % 0 mm
22:45 -10.2 °C -12.6 °C 34029.3 hPa Calm   5.1 km/h 76 % 0 mm
22:49 -9.2 °C -10.8 °C 34029.3 hPa ENE 9 km/h 9 km/h 83 % 0 mm
22:54 -9.2 °C -10.9 °C 34029.3 hPa NNE 11.9 km/h 11.9 km/h 82 % 0 mm
22:55 -10.4 °C -12.8 °C 34029.3 hPa Calm     75 % 0 mm
22:59 -9.2 °C -10.9 °C 34029.3 hPa Calm     82 % 0 mm
23:04 -9.2 °C -10.9 °C 34029.3 hPa ENE 6 km/h 6 km/h 82 % 0 mm
23:05 -10.4 °C -12.8 °C 34029.3 hPa WSW 2.6 km/h 7.7 km/h 75 % 0 mm
23:09 -9.2 °C -10.9 °C 34029.3 hPa ESE 11.9 km/h 11.9 km/h 82 % 0 mm
23:14 -9.2 °C -10.9 °C 34029.3 hPa ESE 11.9 km/h 11.9 km/h 82 % 0 mm
23:15 -10.5 °C -12.8 °C 34029.3 hPa WSW 2.6 km/h 5.1 km/h 76 % 0 mm
23:19 -9.2 °C -10.9 °C 34029.3 hPa SSE 3.1 km/h   82 % 0 mm
23:24 -9.3 °C -11 °C 34029.3 hPa East 7.6 km/h 7.6 km/h 82 % 0 mm
23:25 -10.7 °C -13 °C 34029.3 hPa Calm   5.1 km/h 76 % 0 mm
23:29 -9.3 °C -11 °C 34029.3 hPa ESE 9 km/h 9 km/h 82 % 0 mm
23:34 -9.4 °C -11.1 °C 34029.3 hPa NNW 9 km/h 9 km/h 82 % 0 mm
23:35 -10.7 °C -13.1 °C 34029.3 hPa WSW 5.1 km/h 7.7 km/h 75 % 0 mm
23:39 -9.4 °C -11.1 °C 34029.3 hPa WNW 5.6 km/h   82 % 0 mm
23:44 -9.4 °C -11.1 °C 34029.3 hPa ENE 6 km/h 6 km/h 83 % 0 mm
23:45 -10.7 °C -13.1 °C 34029.3 hPa WSW 2.6 km/h 5.1 km/h 75 % 0 mm
23:49 -9.5 °C -11.2 °C 34029.3 hPa NE 11.9 km/h 11.9 km/h 82 % 0 mm
23:54 -9.6 °C -11.2 °C 34029.3 hPa NNW 3.1 km/h   82 % 0 mm
23:55 -10.8 °C -13.2 °C 34029.3 hPa WSW 2.6 km/h 5.1 km/h 75 % 0 mm
23:59 -9.6 °C -11.2 °C 34029.3 hPa NE 6 km/h 6 km/h 83 % 0 mm
Meteo Sesrovires
Elogis d' Weather Underground - 2 mb

Guio original per  Jim McMurry - jmcmurry@mwt.net Adaptat per a la plantilla per  Wim van der Kuil - Leuven-Template.eu

Trobareu la nostra informacio del temps tambe a:

Weather Underground

AWEKAS